Time;durP1;ratioP1;P1;durP2;ratioP2;P2;SDS_P1;SDS_P2;PMS_P1;PMS_P2;Temp;Humidity;BMP_temperature;BMP_pressure;BME280_temperature;BME280_humidity;BME280_pressure;Samples;Min_cycle;Max_cycle;Signal;HPM_P1;HPM_P2
2023/10/06 00:02:14;;;;;;;;;;;;;;;;;;5106080;28;19938;-58
2023/10/06 00:04:41;;;;;;;;;;;;;;;;;;5106617;28;19923;-59
2023/10/06 00:07:08;;;;;;;;;;;;;;;;;;5113927;28;19924;-55
2023/10/06 00:09:34;;;;;;;;;;;;;;;;;;5112636;28;19983;-57
2023/10/06 00:11:59;;;;;;;;;;;;;;;;;;5106850;28;19912;-57
2023/10/06 00:14:40;;;;;;;;;;;;;;;;;;5110229;28;19916;-58
2023/10/06 00:17:09;;;;;;;;;;;;;;;;;;5114340;28;19912;-58
2023/10/06 00:19:36;;;;;;;;;;;;;;;;;;5105938;28;19908;-57
2023/10/06 00:24:43;;;;;;;;;;;;;;;;;;5094903;28;19976;-56
2023/10/06 00:27:11;;;;;;;;;;;;;;;;;;5093621;28;19937;-55
2023/10/06 00:29:37;;;;;;;;;;;;;;;;;;5124766;28;19940;-57
2023/10/06 00:32:21;;;;;;;;;;;;;;;;;;5094994;28;19950;-57
2023/10/06 00:34:47;;;;;;;;;;;;;;;;;;5130422;28;19912;-57
2023/10/06 00:37:14;;;;;;;;;;;;;;;;;;5076877;28;19912;-55
2023/10/06 00:39:39;;;;;;;;;;;;;;;;;;5116467;28;19922;-60
2023/10/06 00:42:06;;;;;;;;;;;;;;;;;;5094273;28;19920;-54
2023/10/06 00:44:31;;;;;;;;;;;;;;;;;;5083978;28;19919;-55
2023/10/06 00:46:58;;;;;;;;;;;;;;;;;;5083545;28;19912;-56
2023/10/06 00:49:25;;;;;;;;;;;;;;;;;;5130458;28;19927;-58
2023/10/06 00:51:53;;;;;;;;;;;;;;;;;;5112301;28;19913;-55
2023/10/06 00:54:19;;;;;;;;;;;;;;;;;;5113709;28;19916;-55
2023/10/06 00:56:46;;;;;;;;;;;;;;;;;;5123698;28;19920;-57
2023/10/06 00:59:12;;;;;;;;;;;;;;;;;;5112304;28;20067;-57
2023/10/06 01:01:37;;;;;;;;;;;;;;;;;;5115588;28;19908;-56
2023/10/06 01:04:08;;;;;;;;;;;;;;;;;;5076769;28;19912;-58
2023/10/06 01:06:33;;;;;;;;;;;;;;;;;;5105679;28;19948;-55
2023/10/06 01:09:06;;;;;;;;;;;;;;;;;;5117270;28;19930;-56
2023/10/06 01:11:32;;;;;;;;;;;;;;;;;;5081652;28;19912;-55
2023/10/06 01:13:57;;;;;;;;;;;;;;;;;;5097334;28;20307;-54
2023/10/06 01:16:24;;;;;;;;;;;;;;;;;;5108809;28;19912;-51
2023/10/06 01:18:52;;;;;;;;;;;;;;;;;;5113646;28;19913;-56
2023/10/06 01:21:17;;;;;;;;;;;;;;;;;;5104041;28;19908;-58
2023/10/06 01:23:43;;;;;;;;;;;;;;;;;;5098916;28;19923;-57
2023/10/06 01:26:13;;;;;;;;;;;;;;;;;;5099728;28;19912;-58
2023/10/06 01:28:44;;;;;;;;;;;;;;;;;;5133460;28;19933;-57
2023/10/06 01:31:11;;;;;;;;;;;;;;;;;;5107807;28;19920;-56
2023/10/06 01:33:36;;;;;;;;;;;;;;;;;;5110864;28;19912;-56
2023/10/06 01:36:04;;;;;;;;;;;;;;;;;;5102134;28;19913;-55
2023/10/06 01:38:29;;;;;;;;;;;;;;;;;;5113353;28;19912;-58
2023/10/06 01:40:54;;;;;;;;;;;;;;;;;;5115771;28;19924;-58
2023/10/06 01:43:23;;;;;;;;;;;;;;;;;;5082323;28;19916;-56
2023/10/06 01:45:48;;;;;;;;;;;;;;;;;;5098730;28;19916;-54
2023/10/06 01:50:39;;;;;;;;;;;;;;;;;;5079552;28;19976;-56
2023/10/06 01:53:06;;;;;;;;;;;;;;;;;;5096890;28;19912;-56
2023/10/06 01:55:37;;;;;;;;;;;;;;;;;;5107371;28;19919;-55
2023/10/06 01:58:04;;;;;;;;;;;;;;;;;;5098627;28;19930;-55
2023/10/06 02:00:31;;;;;;;;;;;;;;;;;;5093978;28;19924;-54
2023/10/06 02:02:57;;;;;;;;;;;;;;;;;;5101427;28;19916;-56
2023/10/06 02:05:22;;;;;;;;;;;;;;;;;;5120573;28;19923;-56
2023/10/06 02:07:48;;;;;;;;;;;;;;;;;;5114775;28;19923;-56
2023/10/06 02:10:15;;;;;;;;;;;;;;;;;;5113251;28;19912;-56
2023/10/06 02:12:40;;;;;;;;;;;;;;;;;;5104415;28;19987;-56
2023/10/06 02:15:10;;;;;;;;;;;;;;;;;;5116357;28;19912;-57
2023/10/06 02:17:36;;;;;;;;;;;;;;;;;;5084925;28;19927;-58
2023/10/06 02:20:01;;;;;;;;;;;;;;;;;;5120290;28;19912;-58
2023/10/06 02:22:27;;;;;;;;;;;;;;;;;;5095882;28;19954;-54
2023/10/06 02:24:52;;;;;;;;;;;;;;;;;;5107870;28;19912;-53
2023/10/06 02:27:18;;;;;;;;;;;;;;;;;;5115540;28;19998;-57
2023/10/06 02:29:43;;;;;;;;;;;;;;;;;;5116339;28;19913;-57
2023/10/06 02:32:09;;;;;;;;;;;;;;;;;;5103336;28;19912;-57
2023/10/06 02:34:38;;;;;;;;;;;;;;;;;;5115825;28;19920;-56
2023/10/06 02:37:06;;;;;;;;;;;;;;;;;;5115466;28;19912;-58
2023/10/06 02:39:37;;;;;;;;;;;;;;;;;;5115859;28;19946;-56
2023/10/06 02:42:08;;;;;;;;;;;;;;;;;;5123272;28;19916;-57
2023/10/06 02:44:38;;;;;;;;;;;;;;;;;;5115144;28;19912;-57
2023/10/06 02:47:04;;;;;;;;;;;;;;;;;;5106159;28;19912;-57
2023/10/06 02:49:35;;;;;;;;;;;;;;;;;;5128855;28;19912;-55
2023/10/06 02:52:00;;;;;;;;;;;;;;;;;;5106250;28;19942;-55
2023/10/06 02:54:27;;;;;;;;;;;;;;;;;;5094404;28;19916;-56
2023/10/06 02:56:55;;;;;;;;;;;;;;;;;;5127508;28;19919;-56
2023/10/06 02:59:20;;;;;;;;;;;;;;;;;;5101819;28;19919;-56
2023/10/06 03:01:51;;;;;;;;;;;;;;;;;;5129113;28;19912;-55
2023/10/06 03:04:17;;;;;;;;;;;;;;;;;;5099494;28;19912;-57
2023/10/06 03:06:52;;;;;;;;;;;;;;;;;;5112713;28;19919;-58
2023/10/06 03:09:18;;;;;;;;;;;;;;;;;;5117594;28;19912;-56
2023/10/06 03:11:49;;;;;;;;;;;;;;;;;;5115751;28;19912;-58
2023/10/06 03:14:15;;;;;;;;;;;;;;;;;;5096243;28;19919;-54
2023/10/06 03:16:42;;;;;;;;;;;;;;;;;;5131248;28;19919;-56
2023/10/06 03:19:12;;;;;;;;;;;;;;;;;;5091824;28;19928;-56
2023/10/06 03:21:45;;;;;;;;;;;;;;;;;;5118753;28;19916;-52
2023/10/06 03:24:19;;;;;;;;;;;;;;;;;;5077736;28;19919;-57
2023/10/06 03:26:46;;;;;;;;;;;;;;;;;;5122002;28;19923;-55
2023/10/06 03:29:25;;;;;;;;;;;;;;;;;;5103708;28;19913;-55
2023/10/06 03:31:50;;;;;;;;;;;;;;;;;;5097301;28;19934;-54
2023/10/06 03:34:20;;;;;;;;;;;;;;;;;;5079308;28;19912;-56
2023/10/06 03:36:46;;;;;;;;;;;;;;;;;;5111067;28;19927;-55
2023/10/06 03:39:12;;;;;;;;;;;;;;;;;;5110773;28;19912;-55
2023/10/06 03:41:41;;;;;;;;;;;;;;;;;;5113462;28;19920;-55
2023/10/06 03:44:11;;;;;;;;;;;;;;;;;;5094950;28;19920;-57
2023/10/06 03:46:37;;;;;;;;;;;;;;;;;;5128318;28;19912;-56
2023/10/06 03:49:03;;;;;;;;;;;;;;;;;;5131117;28;19923;-57
2023/10/06 03:51:29;;;;;;;;;;;;;;;;;;5093223;28;20031;-55
2023/10/06 03:53:56;;;;;;;;;;;;;;;;;;5088248;28;19912;-57
2023/10/06 03:56:21;;;;;;;;;;;;;;;;;;5114007;28;19973;-56
2023/10/06 03:58:48;;;;;;;;;;;;;;;;;;5091147;28;19913;-57
2023/10/06 04:01:19;;;;;;;;;;;;;;;;;;5111843;28;19947;-58
2023/10/06 04:03:45;;;;;;;;;;;;;;;;;;5114465;28;19916;-58
2023/10/06 04:06:13;;;;;;;;;;;;;;;;;;5113679;28;19919;-57
2023/10/06 04:08:38;;;;;;;;;;;;;;;;;;5103079;28;19955;-57
2023/10/06 04:11:05;;;;;;;;;;;;;;;;;;5100038;28;19919;-57
2023/10/06 04:13:31;;;;;;;;;;;;;;;;;;5103602;28;19974;-54
2023/10/06 04:15:57;;;;;;;;;;;;;;;;;;5113225;28;19912;-57
2023/10/06 04:18:23;;;;;;;;;;;;;;;;;;5114327;28;19919;-57
2023/10/06 04:20:49;;;;;;;;;;;;;;;;;;5100977;28;19913;-57
2023/10/06 04:23:16;;;;;;;;;;;;;;;;;;5106818;28;19963;-55
2023/10/06 04:25:42;;;;;;;;;;;;;;;;;;5113134;28;19946;-58
2023/10/06 04:28:08;;;;;;;;;;;;;;;;;;5102808;28;19912;-58
2023/10/06 04:30:34;;;;;;;;;;;;;;;;;;5094646;28;19917;-55
2023/10/06 04:32:59;;;;;;;;;;;;;;;;;;5083003;28;19916;-57
2023/10/06 04:35:26;;;;;;;;;;;;;;;;;;5099190;28;19912;-56
2023/10/06 04:37:52;;;;;;;;;;;;;;;;;;5100078;28;19912;-58
2023/10/06 04:40:20;;;;;;;;;;;;;;;;;;5098504;28;19930;-57
2023/10/06 04:42:46;;;;;;;;;;;;;;;;;;5099231;28;19951;-56
2023/10/06 04:45:14;;;;;;;;;;;;;;;;;;5099168;28;19919;-56
2023/10/06 04:47:40;;;;;;;;;;;;;;;;;;5110169;28;19912;-57
2023/10/06 04:50:09;;;;;;;;;;;;;;;;;;5100012;28;19919;-57
2023/10/06 04:52:34;;;;;;;;;;;;;;;;;;5099000;28;19930;-57
2023/10/06 04:55:03;;;;;;;;;;;;;;;;;;5098704;28;19944;-58
2023/10/06 04:57:28;;;;;;;;;;;;;;;;;;5099111;28;19917;-56
2023/10/06 04:59:53;;;;;;;;;;;;;;;;;;5105865;28;19931;-56
2023/10/06 05:02:22;;;;;;;;;;;;;;;;;;5103993;28;19923;-57
2023/10/06 05:04:47;;;;;;;;;;;;;;;;;;5108394;28;19908;-57
2023/10/06 05:07:13;;;;;;;;;;;;;;;;;;5097904;28;19951;-57
2023/10/06 05:09:40;;;;;;;;;;;;;;;;;;5099445;28;19916;-57
2023/10/06 05:12:05;;;;;;;;;;;;;;;;;;5098987;28;19919;-56
2023/10/06 05:14:34;;;;;;;;;;;;;;;;;;5098585;28;19912;-52
2023/10/06 05:16:59;;;;;;;;;;;;;;;;;;5101319;28;20060;-55
2023/10/06 05:19:26;;;;;;;;;;;;;;;;;;5079518;28;19940;-54
2023/10/06 05:21:53;;;;;;;;;;;;;;;;;;5097639;28;19912;-56
2023/10/06 05:24:18;;;;;;;;;;;;;;;;;;5105556;28;19908;-57
2023/10/06 05:26:43;;;;;;;;;;;;;;;;;;5116980;28;19912;-55
2023/10/06 05:29:14;;;;;;;;;;;;;;;;;;5090315;28;19918;-54
2023/10/06 05:31:39;;;;;;;;;;;;;;;;;;5092192;28;19987;-53
2023/10/06 05:34:07;;;;;;;;;;;;;;;;;;5101122;28;19961;-56
2023/10/06 05:36:32;;;;;;;;;;;;;;;;;;5110618;28;19944;-53
2023/10/06 05:38:59;;;;;;;;;;;;;;;;;;5106916;28;19970;-54
2023/10/06 05:41:24;;;;;;;;;;;;;;;;;;5097068;28;19916;-55
2023/10/06 05:43:50;;;;;;;;;;;;;;;;;;5096780;28;19923;-55
2023/10/06 05:46:16;;;;;;;;;;;;;;;;;;5096804;28;19913;-57
2023/10/06 05:48:43;;;;;;;;;;;;;;;;;;5103384;28;19912;-57
2023/10/06 05:51:09;;;;;;;;;;;;;;;;;;5110997;28;19924;-57
2023/10/06 05:53:41;;;;;;;;;;;;;;;;;;5112543;28;19912;-56
2023/10/06 05:56:09;;;;;;;;;;;;;;;;;;5098025;28;19913;-57
2023/10/06 05:58:37;;;;;;;;;;;;;;;;;;5116398;28;19915;-52
2023/10/06 06:01:06;;;;;;;;;;;;;;;;;;5115410;28;19924;-56
2023/10/06 06:03:31;;;;;;;;;;;;;;;;;;5108287;28;19980;-53
2023/10/06 06:06:02;;;;;;;;;;;;;;;;;;5115874;28;19923;-51
2023/10/06 06:08:30;;;;;;;;;;;;;;;;;;5115903;28;19912;-53
2023/10/06 06:10:55;;;;;;;;;;;;;;;;;;5102180;28;19919;-55
2023/10/06 06:13:21;;;;;;;;;;;;;;;;;;5109272;28;19916;-54
2023/10/06 06:15:48;;;;;;;;;;;;;;;;;;5112855;28;19912;-56
2023/10/06 06:18:14;;;;;;;;;;;;;;;;;;5107827;28;19912;-55
2023/10/06 06:20:41;;;;;;;;;;;;;;;;;;5096294;28;19981;-56
2023/10/06 06:23:08;;;;;;;;;;;;;;;;;;5096521;28;19916;-55
2023/10/06 06:25:35;;;;;;;;;;;;;;;;;;5096824;28;19971;-56
2023/10/06 06:28:00;;;;;;;;;;;;;;;;;;5101225;28;19919;-58
2023/10/06 06:30:25;;;;;;;;;;;;;;;;;;5099546;28;20027;-58
2023/10/06 06:32:52;;;;;;;;;;;;;;;;;;5096955;28;19944;-58
2023/10/06 06:35:19;;;;;;;;;;;;;;;;;;5097328;28;19912;-54
2023/10/06 06:37:45;;;;;;;;;;;;;;;;;;5098574;28;19939;-56
2023/10/06 06:40:12;;;;;;;;;;;;;;;;;;5098302;28;19916;-56
2023/10/06 06:42:39;;;;;;;;;;;;;;;;;;5101706;28;19980;-55
2023/10/06 06:45:06;;;;;;;;;;;;;;;;;;5105806;28;19919;-56
2023/10/06 06:47:32;;;;;;;;;;;;;;;;;;5101012;28;19912;-56
2023/10/06 06:49:59;;;;;;;;;;;;;;;;;;5105301;28;19918;-55
2023/10/06 06:52:25;;;;;;;;;;;;;;;;;;5095467;28;19934;-58
2023/10/06 06:54:50;;;;;;;;;;;;;;;;;;5100931;28;19948;-56
2023/10/06 06:57:16;;;;;;;;;;;;;;;;;;5093263;28;19913;-57
2023/10/06 06:59:42;;;;;;;;;;;;;;;;;;5106940;28;19971;-57
2023/10/06 07:02:09;;;;;;;;;;;;;;;;;;5100921;28;19901;-57
2023/10/06 07:04:34;;;;;;;;;;;;;;;;;;5103306;28;19924;-58
2023/10/06 07:07:01;;;;;;;;;;;;;;;;;;5101621;28;19908;-56
2023/10/06 07:09:27;;;;;;;;;;;;;;;;;;5114640;28;19912;-57
2023/10/06 07:11:54;;;;;;;;;;;;;;;;;;5101453;28;19984;-57
2023/10/06 07:14:20;;;;;;;;;;;;;;;;;;5085708;28;19912;-57
2023/10/06 07:16:47;;;;;;;;;;;;;;;;;;5103087;28;19951;-59
2023/10/06 07:19:14;;;;;;;;;;;;;;;;;;5087999;28;19996;-55
2023/10/06 07:21:39;;;;;;;;;;;;;;;;;;5095150;28;19928;-56
2023/10/06 07:24:05;;;;;;;;;;;;;;;;;;5099972;28;19955;-57
2023/10/06 07:26:31;;;;;;;;;;;;;;;;;;5090622;28;19975;-55
2023/10/06 07:28:58;;;;;;;;;;;;;;;;;;5109590;28;19912;-54
2023/10/06 07:31:26;;;;;;;;;;;;;;;;;;5103619;28;19913;-56
2023/10/06 07:33:52;;;;;;;;;;;;;;;;;;5094737;28;19913;-55
2023/10/06 07:36:17;;;;;;;;;;;;;;;;;;5096722;28;19928;-54
2023/10/06 07:38:43;;;;;;;;;;;;;;;;;;5105739;28;19922;-54
2023/10/06 07:41:09;;;;;;;;;;;;;;;;;;5096342;28;19920;-57
2023/10/06 07:43:35;;;;;;;;;;;;;;;;;;5096068;28;19913;-57
2023/10/06 07:46:01;;;;;;;;;;;;;;;;;;5087678;28;19912;-56
2023/10/06 07:48:26;;;;;;;;;;;;;;;;;;5100292;28;19912;-52
2023/10/06 07:50:52;;;;;;;;;;;;;;;;;;5102321;28;19916;-57
2023/10/06 07:53:18;;;;;;;;;;;;;;;;;;5106598;28;19919;-56
2023/10/06 07:55:43;;;;;;;;;;;;;;;;;;5090041;28;19912;-56
2023/10/06 07:58:10;;;;;;;;;;;;;;;;;;5100081;28;19916;-57
2023/10/06 08:00:38;;;;;;;;;;;;;;;;;;5105449;28;19941;-57
2023/10/06 08:03:04;;;;;;;;;;;;;;;;;;5106880;28;19912;-56
2023/10/06 08:05:29;;;;;;;;;;;;;;;;;;5096264;28;19973;-53
2023/10/06 08:07:55;;;;;;;;;;;;;;;;;;5107857;28;20313;-57
2023/10/06 08:10:20;;;;;;;;;;;;;;;;;;5103708;28;19943;-58
2023/10/06 08:12:46;;;;;;;;;;;;;;;;;;5097303;28;19975;-57
2023/10/06 08:15:11;;;;;;;;;;;;;;;;;;5098396;28;19963;-55
2023/10/06 08:17:36;;;;;;;;;;;;;;;;;;5109599;28;19939;-57
2023/10/06 08:20:01;;;;;;;;;;;;;;;;;;5126536;28;19919;-55
2023/10/06 08:22:29;;;;;;;;;;;;;;;;;;5104754;28;19920;-55
2023/10/06 08:24:55;;;;;;;;;;;;;;;;;;5106239;28;19920;-57
2023/10/06 08:27:23;;;;;;;;;;;;;;;;;;5090144;28;19916;-57
2023/10/06 08:29:51;;;;;;;;;;;;;;;;;;5118287;28;19913;-55
2023/10/06 08:32:17;;;;;;;;;;;;;;;;;;5117831;28;19912;-58
2023/10/06 08:34:45;;;;;;;;;;;;;;;;;;5107596;28;19913;-54
2023/10/06 08:37:11;;;;;;;;;;;;;;;;;;5106989;28;19912;-55
2023/10/06 08:39:39;;;;;;;;;;;;;;;;;;5117759;28;19934;-57
2023/10/06 08:42:05;;;;;;;;;;;;;;;;;;5105110;28;19912;-57
2023/10/06 08:44:30;;;;;;;;;;;;;;;;;;5103870;28;19940;-55
2023/10/06 08:46:56;;;;;;;;;;;;;;;;;;5093934;28;19979;-59
2023/10/06 08:49:21;;;;;;;;;;;;;;;;;;5110130;28;19912;-55
2023/10/06 08:51:47;;;;;;;;;;;;;;;;;;5111742;28;19916;-56
2023/10/06 08:54:13;;;;;;;;;;;;;;;;;;5098678;28;19913;-59
2023/10/06 08:56:39;;;;;;;;;;;;;;;;;;5102432;28;19912;-57
2023/10/06 08:59:05;;;;;;;;;;;;;;;;;;5103274;28;19985;-56
2023/10/06 09:01:32;;;;;;;;;;;;;;;;;;5086970;28;19912;-58
2023/10/06 09:03:58;;;;;;;;;;;;;;;;;;5093299;28;19923;-56
2023/10/06 09:06:23;;;;;;;;;;;;;;;;;;5099193;28;19913;-56
2023/10/06 09:08:49;;;;;;;;;;;;;;;;;;5099680;28;19917;-57
2023/10/06 09:11:15;;;;;;;;;;;;;;;;;;5111237;28;19912;-57
2023/10/06 09:13:41;;;;;;;;;;;;;;;;;;5099277;28;19944;-59
2023/10/06 09:16:07;;;;;;;;;;;;;;;;;;5101027;28;20276;-59
2023/10/06 09:18:34;;;;;;;;;;;;;;;;;;5098823;28;19923;-58
2023/10/06 09:21:00;;;;;;;;;;;;;;;;;;5095549;28;19939;-57
2023/10/06 09:23:27;;;;;;;;;;;;;;;;;;5075964;28;19916;-59
2023/10/06 09:25:53;;;;;;;;;;;;;;;;;;5103888;28;19912;-58
2023/10/06 09:28:18;;;;;;;;;;;;;;;;;;5100827;28;19944;-58
2023/10/06 09:30:44;;;;;;;;;;;;;;;;;;5108069;28;19912;-58
2023/10/06 09:33:11;;;;;;;;;;;;;;;;;;5096856;28;19975;-58
2023/10/06 09:35:36;;;;;;;;;;;;;;;;;;5091398;28;19912;-57
2023/10/06 09:38:02;;;;;;;;;;;;;;;;;;5095472;28;19916;-59
2023/10/06 09:40:32;;;;;;;;;;;;;;;;;;5092347;28;19947;-59
2023/10/06 09:42:57;;;;;;;;;;;;;;;;;;5097820;28;19976;-58
2023/10/06 09:45:24;;;;;;;;;;;;;;;;;;5097094;28;19916;-59
2023/10/06 09:47:50;;;;;;;;;;;;;;;;;;5099216;28;19931;-57
2023/10/06 09:50:15;;;;;;;;;;;;;;;;;;5104461;28;19912;-59
2023/10/06 09:52:42;;;;;;;;;;;;;;;;;;5103597;28;19935;-60
2023/10/06 09:55:08;;;;;;;;;;;;;;;;;;5098646;28;19913;-59
2023/10/06 09:57:33;;;;;;;;;;;;;;;;;;5107001;28;19919;-59
2023/10/06 09:59:59;;;;;;;;;;;;;;;;;;5111526;28;19920;-59
2023/10/06 10:02:25;;;;;;;;;;;;;;;;;;5112599;28;19916;-58
2023/10/06 10:04:50;;;;;;;;;;;;;;;;;;5112605;28;19912;-59
2023/10/06 10:07:15;;;;;;;;;;;;;;;;;;5112336;28;19912;-58
2023/10/06 10:09:43;;;;;;;;;;;;;;;;;;5111820;28;19982;-59
2023/10/06 10:12:08;;;;;;;;;;;;;;;;;;5111439;28;20351;-57
2023/10/06 10:14:33;;;;;;;;;;;;;;;;;;5105407;28;19917;-58
2023/10/06 10:16:59;;;;;;;;;;;;;;;;;;5098183;28;19921;-58
2023/10/06 10:19:25;;;;;;;;;;;;;;;;;;5096114;28;19944;-59
2023/10/06 10:21:51;;;;;;;;;;;;;;;;;;5098364;28;19938;-59
2023/10/06 10:24:17;;;;;;;;;;;;;;;;;;5086623;28;19912;-59
2023/10/06 10:26:42;;;;;;;;;;;;;;;;;;5094152;28;19915;-59
2023/10/06 10:29:07;;;;;;;;;;;;;;;;;;5095935;28;19912;-59
2023/10/06 10:31:32;;;;;;;;;;;;;;;;;;5106458;28;19912;-60
2023/10/06 10:33:58;;;;;;;;;;;;;;;;;;5064024;28;19913;-59
2023/10/06 10:36:24;;;;;;;;;;;;;;;;;;5100251;28;19927;-59
2023/10/06 10:38:49;;;;;;;;;;;;;;;;;;5111199;28;19916;-60
2023/10/06 10:41:17;;;;;;;;;;;;;;;;;;5095357;28;19924;-60
2023/10/06 10:43:45;;;;;;;;;;;;;;;;;;5112233;28;19927;-60
2023/10/06 10:46:12;;;;;;;;;;;;;;;;;;5097370;28;19962;-58
2023/10/06 10:48:38;;;;;;;;;;;;;;;;;;5110764;28;20004;-59
2023/10/06 10:51:05;;;;;;;;;;;;;;;;;;5096349;28;19912;-60
2023/10/06 10:53:31;;;;;;;;;;;;;;;;;;5076093;28;19910;-59
2023/10/06 10:55:57;;;;;;;;;;;;;;;;;;5095757;28;19919;-60
2023/10/06 10:58:22;;;;;;;;;;;;;;;;;;5110356;28;19983;-60
2023/10/06 11:00:48;;;;;;;;;;;;;;;;;;5096728;28;19916;-59
2023/10/06 11:03:16;;;;;;;;;;;;;;;;;;5100126;28;19919;-59
2023/10/06 11:05:41;;;;;;;;;;;;;;;;;;5106559;28;19908;-59
2023/10/06 11:08:06;;;;;;;;;;;;;;;;;;5099909;28;19930;-60
2023/10/06 11:10:33;;;;;;;;;;;;;;;;;;5097521;28;19917;-59
2023/10/06 11:12:59;;;;;;;;;;;;;;;;;;5111800;28;19933;-60
2023/10/06 11:15:24;;;;;;;;;;;;;;;;;;5107767;28;19913;-59
2023/10/06 11:17:50;;;;;;;;;;;;;;;;;;5106152;28;19979;-59
2023/10/06 11:20:22;;;;;;;;;;;;;;;;;;5106596;28;19916;-60
2023/10/06 11:22:47;;;;;;;;;;;;;;;;;;5105430;28;19916;-59
2023/10/06 11:25:13;;;;;;;;;;;;;;;;;;5095196;28;19934;-60
2023/10/06 11:27:39;;;;;;;;;;;;;;;;;;5078006;28;19916;-58
2023/10/06 11:30:04;;;;;;;;;;;;;;;;;;5096053;28;19920;-59
2023/10/06 11:32:30;;;;;;;;;;;;;;;;;;5095211;28;19912;-59
2023/10/06 11:34:56;;;;;;;;;;;;;;;;;;5095919;28;19920;-59
2023/10/06 11:37:24;;;;;;;;;;;;;;;;;;5094775;28;19989;-58
2023/10/06 11:39:50;;;;;;;;;;;;;;;;;;5093383;28;19940;-59
2023/10/06 11:42:16;;;;;;;;;;;;;;;;;;5094200;28;19916;-60
2023/10/06 11:44:42;;;;;;;;;;;;;;;;;;5095096;28;19990;-59
2023/10/06 11:47:07;;;;;;;;;;;;;;;;;;5094642;28;19984;-59
2023/10/06 11:49:33;;;;;;;;;;;;;;;;;;5094292;28;19912;-59
2023/10/06 11:51:58;;;;;;;;;;;;;;;;;;5095412;28;19919;-60
2023/10/06 11:54:25;;;;;;;;;;;;;;;;;;5095254;28;19913;-60
2023/10/06 11:56:53;;;;;;;;;;;;;;;;;;5095213;28;19913;-59
2023/10/06 11:59:19;;;;;;;;;;;;;;;;;;5095209;28;19920;-60
2023/10/06 12:01:45;;;;;;;;;;;;;;;;;;5110608;28;19912;-60
2023/10/06 12:04:10;;;;;;;;;;;;;;;;;;5100154;28;19920;-60
2023/10/06 12:06:36;;;;;;;;;;;;;;;;;;5095583;28;19919;-60
2023/10/06 12:09:02;;;;;;;;;;;;;;;;;;5095511;28;19920;-60
2023/10/06 12:11:27;;;;;;;;;;;;;;;;;;5098179;28;19931;-60
2023/10/06 12:13:53;;;;;;;;;;;;;;;;;;5082083;28;19940;-59
2023/10/06 12:16:19;;;;;;;;;;;;;;;;;;5094668;28;19924;-59
2023/10/06 12:18:46;;;;;;;;;;;;;;;;;;5095073;28;19912;-60
2023/10/06 12:21:11;;;;;;;;;;;;;;;;;;5102466;28;19947;-60
2023/10/06 12:23:37;;;;;;;;;;;;;;;;;;5113829;28;19916;-60
2023/10/06 12:26:05;;;;;;;;;;;;;;;;;;5114131;28;19914;-58
2023/10/06 12:28:30;;;;;;;;;;;;;;;;;;5113820;28;19916;-59
2023/10/06 12:30:56;;;;;;;;;;;;;;;;;;5114187;28;19919;-59
2023/10/06 12:33:21;;;;;;;;;;;;;;;;;;5099200;28;19917;-60
2023/10/06 12:35:52;;;;;;;;;;;;;;;;;;5094432;28;19917;-60
2023/10/06 12:38:17;;;;;;;;;;;;;;;;;;5110986;28;19912;-59
2023/10/06 12:40:46;;;;;;;;;;;;;;;;;;5094627;28;19988;-60
2023/10/06 12:43:12;;;;;;;;;;;;;;;;;;5107052;28;19924;-61
2023/10/06 12:45:38;;;;;;;;;;;;;;;;;;5094911;28;19935;-60
2023/10/06 12:48:04;;;;;;;;;;;;;;;;;;5095215;28;19912;-60
2023/10/06 12:50:30;;;;;;;;;;;;;;;;;;5094850;28;19923;-60
2023/10/06 12:52:56;;;;;;;;;;;;;;;;;;5096029;28;19935;-58
2023/10/06 12:55:24;;;;;;;;;;;;;;;;;;5096527;28;19912;-59
2023/10/06 12:57:50;;;;;;;;;;;;;;;;;;5098646;28;19924;-61
2023/10/06 13:00:15;;;;;;;;;;;;;;;;;;5098136;28;19913;-60
2023/10/06 13:02:41;;;;;;;;;;;;;;;;;;5100620;28;19923;-60
2023/10/06 13:05:22;;;;;;;;;;;;;;;;;;5098239;28;19962;-60
2023/10/06 13:07:47;;;;;;;;;;;;;;;;;;5081260;28;19944;-61
2023/10/06 13:10:13;;;;;;;;;;;;;;;;;;5114140;28;19924;-60
2023/10/06 13:12:41;;;;;;;;;;;;;;;;;;5101948;28;19913;-60
2023/10/06 13:15:07;;;;;;;;;;;;;;;;;;5081202;28;19972;-59
2023/10/06 13:17:33;;;;;;;;;;;;;;;;;;5099478;28;19913;-61
2023/10/06 13:19:59;;;;;;;;;;;;;;;;;;5080526;28;19951;-59
2023/10/06 13:22:27;;;;;;;;;;;;;;;;;;5103739;28;19923;-60
2023/10/06 13:24:54;;;;;;;;;;;;;;;;;;5117485;28;19919;-61
2023/10/06 13:27:20;;;;;;;;;;;;;;;;;;5116347;28;19931;-60
2023/10/06 13:29:45;;;;;;;;;;;;;;;;;;5109425;28;19912;-58
2023/10/06 13:32:11;;;;;;;;;;;;;;;;;;5111628;28;19947;-61
2023/10/06 13:34:36;;;;;;;;;;;;;;;;;;5105613;28;19955;-59
2023/10/06 13:37:03;;;;;;;;;;;;;;;;;;5097720;28;19934;-60
2023/10/06 13:39:29;;;;;;;;;;;;;;;;;;5096843;28;19923;-60
2023/10/06 13:41:54;;;;;;;;;;;;;;;;;;5097159;28;19905;-60
2023/10/06 13:44:20;;;;;;;;;;;;;;;;;;5119728;28;19917;-61
2023/10/06 13:46:47;;;;;;;;;;;;;;;;;;5115114;28;19943;-60
2023/10/06 13:49:12;;;;;;;;;;;;;;;;;;5114727;28;19900;-59
2023/10/06 13:51:38;;;;;;;;;;;;;;;;;;5114964;28;19935;-60
2023/10/06 13:54:05;;;;;;;;;;;;;;;;;;5116937;28;19948;-59
2023/10/06 13:56:31;;;;;;;;;;;;;;;;;;5103044;28;19913;-60
2023/10/06 13:58:57;;;;;;;;;;;;;;;;;;5121715;28;19912;-59
2023/10/06 14:01:22;;;;;;;;;;;;;;;;;;5093281;28;19924;-60
2023/10/06 14:03:48;;;;;;;;;;;;;;;;;;5108648;28;19935;-59
2023/10/06 14:06:13;;;;;;;;;;;;;;;;;;5102442;28;19983;-58
2023/10/06 14:08:39;;;;;;;;;;;;;;;;;;5108875;28;19934;-59
2023/10/06 14:11:08;;;;;;;;;;;;;;;;;;5113745;28;19919;-60
2023/10/06 14:13:34;;;;;;;;;;;;;;;;;;5108752;28;19912;-59
2023/10/06 14:18:25;;;;;;;;;;;;;;;;;;5094018;28;19912;-60
2023/10/06 14:20:52;;;;;;;;;;;;;;;;;;5096687;28;19916;-59
2023/10/06 14:23:19;;;;;;;;;;;;;;;;;;5096026;28;19923;-60
2023/10/06 14:25:45;;;;;;;;;;;;;;;;;;5082621;28;19923;-60
2023/10/06 14:28:11;;;;;;;;;;;;;;;;;;5085856;28;19912;-61
2023/10/06 14:30:41;;;;;;;;;;;;;;;;;;5096269;28;19946;-60
2023/10/06 14:35:45;;;;;;;;;;;;;;;;;;5077102;28;19944;-60
2023/10/06 14:46:24;;;;;;;;;;;;;;;;;;5094458;28;19923;-59
2023/10/06 14:48:49;;;;;;;;;;;;;;;;;;5105227;28;19916;-60
2023/10/06 14:51:14;;;;;;;;;;;;;;;;;;5087355;28;19959;-60
2023/10/06 14:53:40;;;;;;;;;;;;;;;;;;5098783;28;19913;-61
2023/10/06 14:56:05;;;;;;;;;;;;;;;;;;5091386;28;19927;-60
2023/10/06 14:58:31;;;;;;;;;;;;;;;;;;5085030;28;19913;-59
2023/10/06 15:00:58;;;;;;;;;;;;;;;;;;5098318;28;19934;-60
2023/10/06 15:03:23;;;;;;;;;;;;;;;;;;5094245;28;19916;-60
2023/10/06 15:05:49;;;;;;;;;;;;;;;;;;5105072;28;19916;-59
2023/10/06 15:08:16;;;;;;;;;;;;;;;;;;5098744;28;19952;-59
2023/10/06 15:10:41;;;;;;;;;;;;;;;;;;5093038;28;19944;-61
2023/10/06 15:13:07;;;;;;;;;;;;;;;;;;5084326;28;19919;-59
2023/10/06 15:15:32;;;;;;;;;;;;;;;;;;5102001;28;19912;-60
2023/10/06 15:17:58;;;;;;;;;;;;;;;;;;5097184;28;20269;-60
2023/10/06 15:20:26;;;;;;;;;;;;;;;;;;5095067;28;19917;-59
2023/10/06 15:22:52;;;;;;;;;;;;;;;;;;5110816;28;19917;-60
2023/10/06 15:25:19;;;;;;;;;;;;;;;;;;5102042;28;19939;-59
2023/10/06 15:27:44;;;;;;;;;;;;;;;;;;5097129;28;19916;-59
2023/10/06 15:30:10;;;;;;;;;;;;;;;;;;5091803;28;19923;-59
2023/10/06 15:32:35;;;;;;;;;;;;;;;;;;5106199;28;19913;-59
2023/10/06 15:35:00;;;;;;;;;;;;;;;;;;5095174;28;19988;-59
2023/10/06 15:37:26;;;;;;;;;;;;;;;;;;5094602;28;19920;-59
2023/10/06 15:39:51;;;;;;;;;;;;;;;;;;5095405;28;19948;-60
2023/10/06 15:42:17;;;;;;;;;;;;;;;;;;5097454;28;19954;-60
2023/10/06 15:44:43;;;;;;;;;;;;;;;;;;5107477;28;19912;-60
2023/10/06 15:47:09;;;;;;;;;;;;;;;;;;5095805;28;19976;-59
2023/10/06 15:49:37;;;;;;;;;;;;;;;;;;5096283;28;19913;-59
2023/10/06 15:52:02;;;;;;;;;;;;;;;;;;5091713;28;19928;-57
2023/10/06 15:54:28;;;;;;;;;;;;;;;;;;5101685;28;19930;-60
2023/10/06 15:56:53;;;;;;;;;;;;;;;;;;5084084;28;19935;-60
2023/10/06 15:59:20;;;;;;;;;;;;;;;;;;5095614;28;19934;-60
2023/10/06 16:01:47;;;;;;;;;;;;;;;;;;5094999;28;19908;-61
2023/10/06 16:04:13;;;;;;;;;;;;;;;;;;5097156;28;19923;-62
2023/10/06 16:06:41;;;;;;;;;;;;;;;;;;5104395;28;19984;-60
2023/10/06 16:09:07;;;;;;;;;;;;;;;;;;5097923;28;19908;-60
2023/10/06 16:11:34;;;;;;;;;;;;;;;;;;5095217;28;19909;-60
2023/10/06 16:14:04;;;;;;;;;;;;;;;;;;5098734;28;19916;-59
2023/10/06 16:16:30;;;;;;;;;;;;;;;;;;5114154;28;19941;-60
2023/10/06 16:18:55;;;;;;;;;;;;;;;;;;5109973;28;19955;-60
2023/10/06 16:21:21;;;;;;;;;;;;;;;;;;5102301;28;19920;-60
2023/10/06 16:23:47;;;;;;;;;;;;;;;;;;5112063;28;19983;-60
2023/10/06 16:26:12;;;;;;;;;;;;;;;;;;5112500;28;19912;-60
2023/10/06 16:28:38;;;;;;;;;;;;;;;;;;5112971;28;19920;-56
2023/10/06 16:31:04;;;;;;;;;;;;;;;;;;5102752;28;19908;-58
2023/10/06 16:33:30;;;;;;;;;;;;;;;;;;5108414;28;19912;-59
2023/10/06 16:35:56;;;;;;;;;;;;;;;;;;5118927;28;19927;-58
2023/10/06 16:38:22;;;;;;;;;;;;;;;;;;5114992;28;19920;-59
2023/10/06 16:40:47;;;;;;;;;;;;;;;;;;5116426;28;19916;-59
2023/10/06 16:43:13;;;;;;;;;;;;;;;;;;5130013;28;19923;-59
2023/10/06 16:45:38;;;;;;;;;;;;;;;;;;5110995;28;19947;-59
2023/10/06 16:48:04;;;;;;;;;;;;;;;;;;5104247;28;19954;-59
2023/10/06 16:50:29;;;;;;;;;;;;;;;;;;5115945;28;19916;-60
2023/10/06 16:52:55;;;;;;;;;;;;;;;;;;5102573;28;19916;-59
2023/10/06 16:55:21;;;;;;;;;;;;;;;;;;5098823;28;19923;-59
2023/10/06 16:57:47;;;;;;;;;;;;;;;;;;5112897;28;19912;-59
2023/10/06 17:00:12;;;;;;;;;;;;;;;;;;5112857;28;19987;-57